Time;durP1;ratioP1;P1;durP2;ratioP2;P2;SDS_P1;SDS_P2;PMS_P1;PMS_P2;Temp;Humidity;BMP_temperature;BMP_pressure;BME280_temperature;BME280_humidity;BME280_pressure;Samples;Min_cycle;Max_cycle;Signal;HPM_P1;HPM_P2
2021/05/30 00:00:46;;;;;;;;;;;;;;;8.88;100.00;101881.16;5071006;28;20343;-74
2021/05/30 00:03:12;;;;;;;;;;;;;;;8.88;100.00;101875.72;5053340;28;19920;-74
2021/05/30 00:05:38;;;;;;;;;;;;;;;8.86;100.00;101879.50;5070805;28;20335;-74
2021/05/30 00:08:04;;;;;;;;;;;;;;;8.81;100.00;101866.19;5070985;28;20472;-74
2021/05/30 00:10:30;;;;;;;;;;;;;;;8.79;100.00;101873.53;5070974;28;19952;-74
2021/05/30 00:12:56;;;;;;;;;;;;;;;8.73;100.00;101875.72;5071005;28;19927;-75
2021/05/30 00:15:22;;;;;;;;;;;;;;;8.64;100.00;101871.66;5071022;28;19974;-74
2021/05/30 00:17:48;;;;;;;;;;;;;;;8.53;100.00;101874.97;5070951;28;19920;-73
2021/05/30 00:20:14;;;;;;;;;;;;;;;8.44;100.00;101870.88;5071230;28;19924;-74
2021/05/30 00:22:40;;;;;;;;;;;;;;;8.38;100.00;101861.25;5070969;28;20184;-74
2021/05/30 00:25:06;;;;;;;;;;;;;;;8.35;100.00;101868.66;5071056;28;19927;-74
2021/05/30 00:27:32;;;;;;;;;;;;;;;8.35;100.00;101871.38;5070927;28;20315;-74
2021/05/30 00:29:59;;;;;;;;;;;;;;;8.36;100.00;101874.00;5070896;28;20207;-75
2021/05/30 00:32:25;;;;;;;;;;;;;;;8.36;100.00;101857.78;5070041;28;20280;-74
2021/05/30 00:34:51;;;;;;;;;;;;;;;8.30;100.00;101863.50;5052778;28;19978;-74
2021/05/30 00:37:16;;;;;;;;;;;;;;;8.33;100.00;101863.34;5071149;28;19946;-74
2021/05/30 00:39:42;;;;;;;;;;;;;;;8.33;100.00;101860.63;5071111;28;20009;-75
2021/05/30 00:42:08;;;;;;;;;;;;;;;8.36;100.00;101868.59;5052918;28;19920;-74
2021/05/30 00:44:34;;;;;;;;;;;;;;;8.43;100.00;101868.25;5070722;28;20105;-74
2021/05/30 00:47:01;;;;;;;;;;;;;;;8.34;100.00;101865.09;5070604;28;20281;-74
2021/05/30 00:49:27;;;;;;;;;;;;;;;8.41;100.00;101868.34;5070908;28;20014;-74
2021/05/30 00:51:55;;;;;;;;;;;;;;;8.38;100.00;101871.22;5070604;28;19925;-74
2021/05/30 00:54:21;;;;;;;;;;;;;;;8.42;100.00;101871.91;5070737;28;19920;-74
2021/05/30 00:56:47;;;;;;;;;;;;;;;8.45;100.00;101872.66;5070749;28;20015;-74
2021/05/30 00:59:13;;;;;;;;;;;;;;;8.45;100.00;101871.75;5070618;28;19974;-73
2021/05/30 01:01:39;;;;;;;;;;;;;;;8.38;100.00;101871.22;5052737;28;20257;-73
2021/05/30 01:04:06;;;;;;;;;;;;;;;8.33;100.00;101878.72;5070490;28;20407;-73
2021/05/30 01:06:33;;;;;;;;;;;;;;;8.29;100.00;101877.13;5052424;28;20288;-80
2021/05/30 01:09:01;;;;;;;;;;;;;;;8.25;100.00;101876.41;5036067;28;20334;-80
2021/05/30 01:11:27;;;;;;;;;;;;;;;8.27;100.00;101876.31;5070414;28;19926;-80
2021/05/30 01:13:54;;;;;;;;;;;;;;;8.28;100.00;101860.00;5070729;28;20391;-80
2021/05/30 01:16:20;;;;;;;;;;;;;;;8.23;100.00;101864.81;5070621;28;19927;-80
2021/05/30 01:18:47;;;;;;;;;;;;;;;8.19;100.00;101865.91;5070729;28;19974;-80
2021/05/30 01:21:14;;;;;;;;;;;;;;;8.13;100.00;101866.25;5070640;28;20335;-81
2021/05/30 01:23:41;;;;;;;;;;;;;;;8.14;100.00;101868.00;5070753;28;20368;-80
2021/05/30 01:26:07;;;;;;;;;;;;;;;8.11;100.00;101860.91;5070412;28;20045;-80
2021/05/30 01:28:32;;;;;;;;;;;;;;;8.08;100.00;101862.91;5070371;28;20342;-80
2021/05/30 01:30:58;;;;;;;;;;;;;;;8.00;100.00;101863.28;5070780;28;19962;-80
2021/05/30 01:33:24;;;;;;;;;;;;;;;7.94;100.00;101863.63;5070161;28;19921;-81
2021/05/30 01:35:50;;;;;;;;;;;;;;;7.84;100.00;101871.31;5070400;28;19920;-80
2021/05/30 01:38:16;;;;;;;;;;;;;;;7.79;100.00;101876.09;5070511;28;19920;-80
2021/05/30 01:40:42;;;;;;;;;;;;;;;7.82;100.00;101875.97;5069775;28;20315;-80
2021/05/30 01:43:08;;;;;;;;;;;;;;;7.79;100.00;101885.09;5052273;28;20328;-80
2021/05/30 01:45:34;;;;;;;;;;;;;;;7.79;100.00;101885.09;5071805;28;20027;-80
2021/05/30 01:48:01;;;;;;;;;;;;;;;7.78;100.00;101883.34;5056194;28;19927;-80
2021/05/30 01:50:27;;;;;;;;;;;;;;;7.79;100.00;101885.09;5073958;28;19925;-80
2021/05/30 01:52:54;;;;;;;;;;;;;;;7.75;100.00;101888.91;5073685;28;19921;-80
2021/05/30 01:55:24;;;;;;;;;;;;;;;7.69;100.00;101886.50;5073833;28;20295;-80
2021/05/30 01:57:52;;;;;;;;;;;;;;;7.72;100.00;101889.03;5073636;28;19960;-80
2021/05/30 02:00:18;;;;;;;;;;;;;;;7.74;100.00;101883.56;5055966;28;19920;-81
2021/05/30 02:02:44;;;;;;;;;;;;;;;7.71;100.00;101888.19;5073406;28;20391;-80
2021/05/30 02:05:11;;;;;;;;;;;;;;;7.70;100.00;101883.72;5073319;28;20376;-80
2021/05/30 02:07:38;;;;;;;;;;;;;;;7.69;100.00;101881.09;5073463;28;20337;-80
2021/05/30 02:10:05;;;;;;;;;;;;;;;7.58;100.00;101884.34;5073473;28;19920;-80
2021/05/30 02:12:32;;;;;;;;;;;;;;;7.55;100.00;101887.22;5073707;28;19966;-80
2021/05/30 02:14:59;;;;;;;;;;;;;;;7.52;100.00;101880.13;5073288;28;20011;-79
2021/05/30 02:17:25;;;;;;;;;;;;;;;7.57;100.00;101884.44;5073401;28;19928;-79
2021/05/30 02:19:52;;;;;;;;;;;;;;;7.51;100.00;101894.59;5055493;28;20005;-80
2021/05/30 02:22:18;;;;;;;;;;;;;;;7.55;100.00;101884.50;5055213;28;19927;-80
2021/05/30 02:24:44;;;;;;;;;;;;;;;7.52;100.00;101890.94;5072978;28;19920;-80
2021/05/30 02:27:09;;;;;;;;;;;;;;;7.53;100.00;101891.81;5073099;28;19927;-80
2021/05/30 02:29:36;;;;;;;;;;;;;;;7.49;100.00;101887.50;5073298;28;19925;-79
2021/05/30 02:32:04;;;;;;;;;;;;;;;7.45;100.00;101889.47;5073122;28;19967;-80
2021/05/30 02:34:30;;;;;;;;;;;;;;;7.45;100.00;101886.78;5054972;28;19921;-80
2021/05/30 02:36:56;;;;;;;;;;;;;;;7.46;100.00;101888.53;5072931;28;20376;-80
2021/05/30 02:39:22;;;;;;;;;;;;;;;7.45;100.00;101894.03;5072800;28;19927;-80
2021/05/30 02:41:47;;;;;;;;;;;;;;;7.46;100.00;101888.53;5054824;28;19934;-80
2021/05/30 02:44:13;;;;;;;;;;;;;;;7.47;100.00;101889.41;5054418;28;20031;-80
2021/05/30 02:46:39;;;;;;;;;;;;;;;7.50;100.00;101889.28;5072716;28;19966;-80
2021/05/30 02:49:06;;;;;;;;;;;;;;;7.52;100.00;101885.53;5072925;28;19924;-80
2021/05/30 02:51:32;;;;;;;;;;;;;;;7.56;100.00;101896.19;5072548;28;20053;-80
2021/05/30 02:53:58;;;;;;;;;;;;;;;7.58;100.00;101899.69;5038030;28;19927;-80
2021/05/30 02:56:24;;;;;;;;;;;;;;;7.58;100.00;101900.56;5071880;28;20086;-74
2021/05/30 02:58:50;;;;;;;;;;;;;;;7.56;100.00;101897.03;5072660;28;19962;-74
2021/05/30 03:01:15;;;;;;;;;;;;;;;7.63;100.00;101897.63;5072288;28;19920;-74
2021/05/30 03:03:41;;;;;;;;;;;;;;;7.65;100.00;101901.13;5072037;28;20334;-74
2021/05/30 03:06:08;;;;;;;;;;;;;;;7.65;100.00;101903.84;5072482;28;19920;-74
2021/05/30 03:08:34;;;;;;;;;;;;;;;7.68;100.00;101898.25;5072008;28;19921;-73
2021/05/30 03:10:59;;;;;;;;;;;;;;;7.71;100.00;101903.53;5072248;28;20474;-75
2021/05/30 03:13:25;;;;;;;;;;;;;;;7.74;100.00;101900.66;5072126;28;20290;-75
2021/05/30 03:15:51;;;;;;;;;;;;;;;7.78;100.00;101898.69;5072043;28;19924;-74
2021/05/30 03:18:17;;;;;;;;;;;;;;;7.86;100.00;101902.75;5072040;28;19920;-73
2021/05/30 03:20:43;;;;;;;;;;;;;;;7.91;100.00;101898.91;5071631;28;19931;-74
2021/05/30 03:23:09;;;;;;;;;;;;;;;7.96;100.00;101900.44;5071998;28;19943;-73
2021/05/30 03:25:36;;;;;;;;;;;;;;;7.97;100.00;101904.03;5071715;28;19978;-74
2021/05/30 03:28:02;;;;;;;;;;;;;;;8.05;100.00;101905.38;5071988;28;19953;-74
2021/05/30 03:30:28;;;;;;;;;;;;;;;8.05;100.00;101912.63;5053892;28;20413;-74
2021/05/30 03:32:54;;;;;;;;;;;;;;;8.13;100.00;101912.22;5071669;28;19920;-74
2021/05/30 03:35:19;;;;;;;;;;;;;;;8.24;100.00;101917.06;5071878;28;20394;-71
2021/05/30 03:37:46;;;;;;;;;;;;;;;8.28;100.00;101907.84;5071203;28;19924;-71
2021/05/30 03:40:25;;;;;;;;;;;;;;;8.41;100.00;101911.63;5071885;28;20433;-71
2021/05/30 03:42:52;;;;;;;;;;;;;;;8.57;100.00;101910.84;5071703;28;19920;-71
2021/05/30 03:45:19;;;;;;;;;;;;;;;8.58;100.00;101910.78;5071090;28;20439;-70
2021/05/30 03:47:44;;;;;;;;;;;;;;;8.69;100.00;101913.75;5053593;28;20299;-71
2021/05/30 03:50:10;;;;;;;;;;;;;;;8.83;100.00;101914.84;5072290;28;19920;-71
2021/05/30 03:52:36;;;;;;;;;;;;;;;8.90;100.00;101913.56;5071421;28;19927;-71
2021/05/30 03:55:02;;;;;;;;;;;;;;;8.95;100.00;101910.56;5070605;28;20410;-71
2021/05/30 03:57:29;;;;;;;;;;;;;;;9.03;100.00;101911.91;5065749;28;19943;-71
2021/05/30 03:59:54;;;;;;;;;;;;;;;9.23;100.00;101917.16;5071385;28;19979;-71
2021/05/30 04:02:20;;;;;;;;;;;;;;;9.36;100.00;101915.50;5061978;28;19943;-71
2021/05/30 04:04:46;;;;;;;;;;;;;;;9.39;100.00;101920.72;5051108;28;19967;-71
2021/05/30 04:07:12;;;;;;;;;;;;;;;9.48;100.00;101919.34;5050452;28;20403;-71
2021/05/30 04:09:37;;;;;;;;;;;;;;;9.54;100.00;101911.72;5051200;28;19921;-71
2021/05/30 04:12:04;;;;;;;;;;;;;;;9.65;100.00;101923.78;5051350;28;19920;-71
2021/05/30 04:14:30;;;;;;;;;;;;;;;9.73;100.00;101924.22;5044955;28;20371;-71
2021/05/30 04:16:56;;;;;;;;;;;;;;;9.81;100.00;101930.06;5091316;28;19920;-71
2021/05/30 04:19:22;;;;;;;;;;;;;;;9.96;100.00;101920.13;5089316;28;19920;-71
2021/05/30 04:21:48;;;;;;;;;;;;;;;10.10;100.00;101919.31;5073041;28;19920;-71
2021/05/30 04:24:14;;;;;;;;;;;;;;;10.24;100.00;101925.75;5077505;28;20341;-71
2021/05/30 04:26:39;;;;;;;;;;;;;;;10.27;100.00;101926.41;5088786;28;20471;-70
2021/05/30 04:29:06;;;;;;;;;;;;;;;10.48;100.00;101929.69;5079046;28;19939;-70
2021/05/30 04:31:32;;;;;;;;;;;;;;;10.51;100.00;101929.50;5070732;28;20203;-71
2021/05/30 04:33:58;;;;;;;;;;;;;;;10.62;100.00;101920.72;5060822;28;20304;-71
2021/05/30 04:36:24;;;;;;;;;;;;;;;10.73;100.00;101917.31;5091034;28;19920;-71
2021/05/30 04:38:50;;;;;;;;;;;;;;;10.88;100.00;101919.03;5087300;28;19992;-71
2021/05/30 04:41:15;;;;;;;;;;;;;;;11.04;100.00;101926.22;5089920;28;20013;-71
2021/05/30 04:43:41;;;;;;;;;;;;;;;11.07;100.00;101928.72;5077031;28;19920;-71
2021/05/30 04:46:07;;;;;;;;;;;;;;;11.11;100.00;101927.56;5070887;28;19920;-71
2021/05/30 04:48:34;;;;;;;;;;;;;;;11.26;100.00;101930.25;5090004;28;19965;-72
2021/05/30 04:51:05;;;;;;;;;;;;;;;11.26;100.00;101924.81;5073238;28;19950;-71
2021/05/30 04:53:32;;;;;;;;;;;;;;;11.33;100.00;101924.34;5070236;28;19921;-71
2021/05/30 04:56:00;;;;;;;;;;;;;;;11.49;100.00;101926.91;5086384;28;19920;-71
2021/05/30 04:58:26;;;;;;;;;;;;;;;11.71;100.00;101925.47;5081194;28;19931;-71
2021/05/30 05:00:52;;;;;;;;;;;;;;;11.90;100.00;101922.38;5070372;28;19928;-72
2021/05/30 05:03:18;;;;;;;;;;;;;;;12.04;100.00;101921.50;5070228;28;19976;-71
2021/05/30 05:05:45;;;;;;;;;;;;;;;12.15;100.00;101923.47;5061746;28;19925;-72
2021/05/30 05:08:11;;;;;;;;;;;;;;;12.44;100.00;101921.44;5069724;28;19951;-71
2021/05/30 05:10:36;;;;;;;;;;;;;;;12.43;100.00;101922.41;5077942;28;19927;-72
2021/05/30 05:13:02;;;;;;;;;;;;;;;12.56;100.00;101920.56;5072402;28;20367;-72
2021/05/30 05:15:28;;;;;;;;;;;;;;;12.61;100.00;101927.53;5077511;28;19924;-70
2021/05/30 05:17:54;;;;;;;;;;;;;;;12.85;100.00;101922.19;5070377;28;19925;-73
2021/05/30 05:20:19;;;;;;;;;;;;;;;13.04;100.00;101917.16;5091531;28;20333;-73
2021/05/30 05:22:46;;;;;;;;;;;;;;;13.16;100.00;101915.38;5076118;28;19935;-73
2021/05/30 05:25:12;;;;;;;;;;;;;;;13.31;100.00;101923.41;5077130;28;19996;-73
2021/05/30 05:27:38;;;;;;;;;;;;;;;13.38;100.00;101917.41;5073393;28;19973;-72
2021/05/30 05:30:05;;;;;;;;;;;;;;;13.54;100.00;101919.88;5087132;28;20387;-72
2021/05/30 05:32:30;;;;;;;;;;;;;;;13.67;100.00;101919.84;5074759;28;19978;-75
2021/05/30 05:34:56;;;;;;;;;;;;;;;13.89;100.00;101912.72;5072721;28;20428;-73
2021/05/30 05:37:22;;;;;;;;;;;;;;;13.99;100.00;101926.53;5077285;28;20418;-73
2021/05/30 05:39:49;;;;;;;;;;;;;;;14.11;100.00;101924.72;5093854;28;19920;-74
2021/05/30 05:42:14;;;;;;;;;;;;;;;14.28;100.00;101928.88;5090875;28;19927;-73
2021/05/30 05:44:40;;;;;;;;;;;;;;;14.51;100.00;101925.22;5073287;28;19920;-72
2021/05/30 05:47:06;;;;;;;;;;;;;;;14.82;100.00;101919.22;5075349;28;19920;-72
2021/05/30 05:49:33;;;;;;;;;;;;;;;14.95;100.00;101921.81;5068903;28;19943;-72
2021/05/30 05:51:59;;;;;;;;;;;;;;;15.21;100.00;101933.34;5073303;28;20026;-72
2021/05/30 05:54:25;;;;;;;;;;;;;;;15.40;97.60;101929.97;5086356;28;19924;-73
2021/05/30 05:56:52;;;;;;;;;;;;;;;15.61;97.35;101926.47;5088067;28;19920;-73
2021/05/30 05:59:17;;;;;;;;;;;;;;;15.89;94.40;101923.13;5075748;28;19919;-74
2021/05/30 06:01:43;;;;;;;;;;;;;;;16.18;91.83;101928.00;5091680;28;19923;-75
2021/05/30 06:04:09;;;;;;;;;;;;;;;16.42;89.21;101924.09;5082356;28;19928;-74
2021/05/30 06:06:35;;;;;;;;;;;;;;;16.87;85.23;101911.97;5073940;28;19920;-73
2021/05/30 06:09:01;;;;;;;;;;;;;;;17.04;85.96;101916.84;5054757;28;19924;-72
2021/05/30 06:11:26;;;;;;;;;;;;;;;17.42;78.31;101916.22;5072868;28;20429;-73
2021/05/30 06:13:53;;;;;;;;;;;;;;;17.71;75.16;101913.53;5073091;28;19928;-73
2021/05/30 06:16:19;;;;;;;;;;;;;;;17.76;70.99;101913.09;5090792;28;20387;-72
2021/05/30 06:18:45;;;;;;;;;;;;;;;17.94;67.95;101922.41;5090445;28;19924;-71
2021/05/30 06:21:11;;;;;;;;;;;;;;;18.19;66.61;101915.44;5076262;28;19943;-71
2021/05/30 06:23:37;;;;;;;;;;;;;;;18.44;64.25;101917.72;5064768;28;20019;-70
2021/05/30 06:26:09;;;;;;;;;;;;;;;18.66;64.12;101916.53;5065009;28;19924;-72
2021/05/30 06:28:35;;;;;;;;;;;;;;;18.83;59.86;101921.25;5089479;28;19927;-69
2021/05/30 06:31:02;;;;;;;;;;;;;;;18.89;58.82;101917.94;5082386;28;19959;-71
2021/05/30 06:33:27;;;;;;;;;;;;;;;19.47;58.54;101931.53;5074669;28;19959;-71
2021/05/30 06:35:53;;;;;;;;;;;;;;;20.01;56.60;101923.38;5076637;28;19919;-71
2021/05/30 06:38:19;;;;;;;;;;;;;;;20.16;53.24;101918.16;5081858;28;19920;-72
2021/05/30 06:40:45;;;;;;;;;;;;;;;20.60;54.11;101920.06;5055063;28;19943;-72
2021/05/30 06:43:12;;;;;;;;;;;;;;;20.77;52.36;101924.66;5092321;28;19919;-75
2021/05/30 06:45:38;;;;;;;;;;;;;;;21.22;50.69;101914.38;5072294;28;19934;-76
2021/05/30 06:48:05;;;;;;;;;;;;;;;21.07;48.08;101926.06;5085793;28;20805;-74
2021/05/30 06:50:31;;;;;;;;;;;;;;;21.39;49.16;101924.47;5088495;28;19927;-75
2021/05/30 06:52:57;;;;;;;;;;;;;;;21.09;44.48;101923.13;5072996;28;19920;-75
2021/05/30 06:55:23;;;;;;;;;;;;;;;21.22;44.66;101920.75;5073079;28;19924;-72
2021/05/30 06:57:49;;;;;;;;;;;;;;;21.85;45.81;101920.47;5075909;28;19927;-72
2021/05/30 07:00:15;;;;;;;;;;;;;;;21.96;43.83;101924.78;5078360;28;19973;-72
2021/05/30 07:02:41;;;;;;;;;;;;;;;21.48;43.14;101928.09;5088377;28;19966;-74
2021/05/30 07:05:08;;;;;;;;;;;;;;;21.61;45.56;101929.56;5084536;28;19924;-72
2021/05/30 07:07:34;;;;;;;;;;;;;;;21.63;42.57;101933.00;5078040;28;19927;-72
2021/05/30 07:10:00;;;;;;;;;;;;;;;21.97;43.43;101932.91;5057104;28;19921;-72
2021/05/30 07:12:26;;;;;;;;;;;;;;;22.16;42.92;101922.56;5074197;28;19932;-70
2021/05/30 07:14:52;;;;;;;;;;;;;;;22.24;42.83;101931.69;5071730;28;20327;-72
2021/05/30 07:17:18;;;;;;;;;;;;;;;22.00;40.79;101932.56;5075011;28;19920;-73
2021/05/30 07:19:46;;;;;;;;;;;;;;;22.38;41.34;101926.53;5052981;28;19978;-78
2021/05/30 07:22:13;;;;;;;;;;;;;;;22.95;40.55;101924.72;5079480;28;20383;-73
2021/05/30 07:24:39;;;;;;;;;;;;;;;23.27;38.89;101931.22;5091514;28;20383;-72
2021/05/30 07:27:05;;;;;;;;;;;;;;;23.13;37.76;101932.78;5073862;28;19927;-71
2021/05/30 07:29:31;;;;;;;;;;;;;;;23.45;38.75;101925.41;5092123;28;20398;-72
2021/05/30 07:31:57;;;;;;;;;;;;;;;23.61;37.03;101928.09;5092093;28;19920;-72
2021/05/30 07:34:23;;;;;;;;;;;;;;;23.84;36.54;101932.81;5091488;28;19920;-72
2021/05/30 07:36:48;;;;;;;;;;;;;;;23.84;35.59;101925.34;5091508;28;20321;-72
2021/05/30 07:39:15;;;;;;;;;;;;;;;24.00;36.38;101931.88;5092053;28;19920;-73
2021/05/30 07:41:41;;;;;;;;;;;;;;;23.71;35.84;101936.19;5091845;28;19958;-71
2021/05/30 07:44:07;;;;;;;;;;;;;;;24.01;35.17;101931.69;5091678;28;19920;-71
2021/05/30 07:46:33;;;;;;;;;;;;;;;24.45;34.45;101932.84;5091636;28;19965;-72
2021/05/30 07:48:58;;;;;;;;;;;;;;;23.97;32.65;101927.56;5091965;28;19963;-72
2021/05/30 07:51:24;;;;;;;;;;;;;;;24.04;31.51;101930.44;5073560;28;19928;-71
2021/05/30 07:53:50;;;;;;;;;;;;;;;24.30;32.13;101931.97;5091197;28;19976;-72
2021/05/30 07:56:17;;;;;;;;;;;;;;;24.46;30.98;101936.50;5091431;28;19924;-71
2021/05/30 07:58:43;;;;;;;;;;;;;;;24.76;31.41;101929.13;5091602;28;19920;-72
2021/05/30 08:01:08;;;;;;;;;;;;;;;24.86;31.20;101929.69;5077360;28;19928;-72
2021/05/30 08:03:34;;;;;;;;;;;;;;;24.43;29.65;101928.56;5053125;28;19920;-72
2021/05/30 08:06:00;;;;;;;;;;;;;;;24.52;30.71;101932.97;5071441;28;19920;-72
2021/05/30 08:08:26;;;;;;;;;;;;;;;24.95;30.81;101929.59;5071024;28;19970;-73
2021/05/30 08:10:54;;;;;;;;;;;;;;;24.49;29.99;101931.44;5052745;28;21465;-71
2021/05/30 08:13:20;;;;;;;;;;;;;;;24.98;30.23;101926.44;5070833;28;20041;-71
2021/05/30 08:15:46;;;;;;;;;;;;;;;25.04;29.42;101934.00;5070556;28;19933;-72
2021/05/30 08:18:12;;;;;;;;;;;;;;;25.37;29.79;101926.16;5053059;28;19925;-71
2021/05/30 08:20:38;;;;;;;;;;;;;;;25.19;29.03;101929.31;5070999;28;20031;-71
2021/05/30 08:23:04;;;;;;;;;;;;;;;25.18;28.08;101919.25;5053119;28;19924;-72
2021/05/30 08:25:30;;;;;;;;;;;;;;;25.59;29.29;101917.88;5070883;28;19924;-72
2021/05/30 08:27:56;;;;;;;;;;;;;;;26.00;30.20;101917.25;5071171;28;20119;-72
2021/05/30 08:30:22;;;;;;;;;;;;;;;26.17;29.55;101931.75;5071227;28;19978;-74
2021/05/30 08:32:48;;;;;;;;;;;;;;;25.80;28.48;101922.63;5052643;28;19955;-72
2021/05/30 08:35:14;;;;;;;;;;;;;;;25.60;26.95;101925.13;5052968;28;19925;-72
2021/05/30 08:37:43;;;;;;;;;;;;;;;25.64;28.42;101929.28;5052767;28;20014;-72
2021/05/30 08:40:10;;;;;;;;;;;;;;;25.04;27.58;101929.31;5053276;28;20395;-71
2021/05/30 08:42:36;;;;;;;;;;;;;;;25.12;26.70;101933.94;5070810;28;19967;-70
2021/05/30 08:45:02;;;;;;;;;;;;;;;25.05;30.10;101930.19;5052653;28;20316;-72
2021/05/30 08:47:29;;;;;;;;;;;;;;;25.71;30.53;101926.56;5052863;28;19928;-73
2021/05/30 08:49:55;;;;;;;;;;;;;;;25.75;29.06;101925.13;5052413;28;19931;-74
2021/05/30 08:52:22;;;;;;;;;;;;;;;26.12;27.88;101920.38;5070942;28;19955;-70
2021/05/30 08:54:47;;;;;;;;;;;;;;;26.37;29.61;101936.66;5072813;28;19928;-72
2021/05/30 08:57:13;;;;;;;;;;;;;;;26.27;28.12;101925.88;5074598;28;20349;-74
2021/05/30 08:59:51;;;;;;;;;;;;;;;26.27;26.66;101933.34;5074737;28;19929;-72
2021/05/30 09:02:17;;;;;;;;;;;;;;;26.62;27.52;101931.50;5074407;28;20300;-73
2021/05/30 09:04:48;;;;;;;;;;;;;;;26.63;27.20;101929.56;5074653;28;19925;-74
2021/05/30 09:07:14;;;;;;;;;;;;;;;26.04;29.63;101932.50;5056229;28;19924;-74
2021/05/30 09:09:41;;;;;;;;;;;;;;;26.59;27.88;101922.69;5074602;28;19928;-73
2021/05/30 09:12:11;;;;;;;;;;;;;;;26.20;26.77;101927.72;5074706;28;19932;-73
2021/05/30 09:14:41;;;;;;;;;;;;;;;26.71;27.62;101932.22;5074320;28;19928;-73
2021/05/30 09:17:08;;;;;;;;;;;;;;;26.56;26.40;101935.09;5074540;28;19928;-72
2021/05/30 09:19:42;;;;;;;;;;;;;;;26.97;27.53;101928.78;5074255;28;19964;-73
2021/05/30 09:22:32;;;;;;;;;;;;;;;27.17;26.64;101931.66;5056488;28;20019;-73
2021/05/30 09:25:13;;;;;;;;;;;;;;;26.11;26.92;101928.91;5053558;28;19928;-72
2021/05/30 09:27:43;;;;;;;;;;;;;;;26.02;26.83;101933.75;5074050;28;19924;-72
2021/05/30 09:30:16;;;;;;;;;;;;;;;26.09;27.63;101919.94;5056326;28;19924;-73
2021/05/30 09:33:03;;;;;;;;;;;;;;;25.58;27.66;101923.63;5073897;28;19936;-74
2021/05/30 09:35:42;;;;;;;;;;;;;;;25.60;26.94;101916.78;5073961;28;19931;-72
2021/05/30 09:38:09;;;;;;;;;;;;;;;25.89;28.06;101918.63;5056003;28;19924;-73
2021/05/30 09:40:37;;;;;;;;;;;;;;;25.81;26.58;101920.69;5073966;28;20014;-71
2021/05/30 09:43:07;;;;;;;;;;;;;;;25.99;27.54;101920.22;5073534;28;19924;-73
2021/05/30 09:45:33;;;;;;;;;;;;;;;26.23;28.04;101916.22;5055970;28;19924;-74
2021/05/30 09:48:01;;;;;;;;;;;;;;;26.52;29.37;101914.28;5055755;28;19926;-73
2021/05/30 09:50:30;;;;;;;;;;;;;;;27.08;28.22;101915.34;5073678;28;19972;-73
2021/05/30 09:52:56;;;;;;;;;;;;;;;27.45;26.82;101916.81;5073662;28;19924;-72
2021/05/30 09:55:23;;;;;;;;;;;;;;;27.14;26.59;101918.16;5073131;28;20338;-73
2021/05/30 09:58:04;;;;;;;;;;;;;;;27.25;26.20;101919.50;5073591;28;19924;-73
2021/05/30 10:00:30;;;;;;;;;;;;;;;27.40;26.48;101909.06;5073251;28;19925;-73
2021/05/30 10:02:56;;;;;;;;;;;;;;;27.36;27.94;101918.88;5055460;28;20009;-74
2021/05/30 10:05:22;;;;;;;;;;;;;;;27.51;27.41;101915.13;5072323;28;19970;-73
2021/05/30 10:07:48;;;;;;;;;;;;;;;26.90;25.51;101913.97;5072965;28;20437;-72
2021/05/30 10:10:14;;;;;;;;;;;;;;;26.66;27.28;101929.19;5073521;28;19970;-73
2021/05/30 10:12:40;;;;;;;;;;;;;;;26.59;26.58;101926.34;5073065;28;20069;-72
2021/05/30 10:15:08;;;;;;;;;;;;;;;26.47;27.95;101925.16;5054897;28;19931;-73
2021/05/30 10:17:34;;;;;;;;;;;;;;;26.82;28.47;101934.47;5071994;28;19932;-73
2021/05/30 10:20:01;;;;;;;;;;;;;;;26.81;26.72;101916.03;5073434;28;19993;-73
2021/05/30 10:22:27;;;;;;;;;;;;;;;26.99;28.44;101915.50;5072932;28;19928;-72
2021/05/30 10:24:53;;;;;;;;;;;;;;;27.16;27.72;101921.59;5072438;28;19990;-71
2021/05/30 10:27:23;;;;;;;;;;;;;;;27.67;28.91;101917.53;5072913;28;20388;-72
2021/05/30 10:30:07;;;;;;;;;;;;;;;28.14;26.61;101914.88;5072856;28;20513;-71
2021/05/30 10:32:35;;;;;;;;;;;;;;;28.97;26.76;101915.44;5073170;28;19925;-71
2021/05/30 10:35:11;;;;;;;;;;;;;;;29.24;26.07;101916.22;5054961;28;19960;-71
2021/05/30 10:37:41;;;;;;;;;;;;;;;28.50;27.59;101913.59;5054327;28;19932;-72
2021/05/30 10:40:27;;;;;;;;;;;;;;;28.26;26.67;101917.00;5071591;28;19925;-72
2021/05/30 10:43:17;;;;;;;;;;;;;;;28.44;26.68;101908.00;5072331;28;19978;-72
2021/05/30 10:45:59;;;;;;;;;;;;;;;28.43;27.50;101903.50;5057256;28;20376;-72
2021/05/30 10:48:26;;;;;;;;;;;;;;;28.32;26.04;101908.63;5072723;28;19932;-72
2021/05/30 10:51:02;;;;;;;;;;;;;;;27.86;25.59;101901.03;5072625;28;19924;-71
2021/05/30 10:53:33;;;;;;;;;;;;;;;27.25;28.24;101907.50;5072152;28;19925;-72
2021/05/30 10:56:18;;;;;;;;;;;;;;;27.51;28.70;101892.81;5072204;28;19925;-72
2021/05/30 10:58:44;;;;;;;;;;;;;;;27.26;26.80;101898.91;5054780;28;19932;-71
2021/05/30 11:01:35;;;;;;;;;;;;;;;27.80;26.34;101894.38;5072321;28;19950;-71
2021/05/30 11:04:16;;;;;;;;;;;;;;;27.37;28.13;101895.56;5072142;28;20315;-72
2021/05/30 11:06:43;;;;;;;;;;;;;;;27.27;29.43;101886.69;5071567;28;19925;-73
2021/05/30 11:09:09;;;;;;;;;;;;;;;27.68;29.49;101893.31;5072227;28;19924;-73
2021/05/30 11:11:34;;;;;;;;;;;;;;;27.42;28.40;101892.16;5037262;28;20106;-73
2021/05/30 11:14:01;;;;;;;;;;;;;;;26.54;30.11;101901.91;5071722;28;19932;-73
2021/05/30 11:16:28;;;;;;;;;;;;;;;26.76;28.53;101892.66;5071751;28;19928;-72
2021/05/30 11:18:58;;;;;;;;;;;;;;;27.15;27.63;101892.03;5072078;28;19931;-71
2021/05/30 11:21:28;;;;;;;;;;;;;;;27.42;26.35;101894.94;5072110;28;20406;-71
2021/05/30 11:23:55;;;;;;;;;;;;;;;28.28;27.11;101887.81;5053819;28;20404;-72
2021/05/30 11:26:21;;;;;;;;;;;;;;;28.44;26.68;101891.25;5054234;28;19932;-71
2021/05/30 11:28:47;;;;;;;;;;;;;;;27.91;26.10;101892.91;5071786;28;19940;-72
2021/05/30 11:31:13;;;;;;;;;;;;;;;27.94;25.47;101889.72;5053527;28;19986;-71
2021/05/30 11:33:42;;;;;;;;;;;;;;;28.02;25.49;101883.94;5071617;28;19925;-72
2021/05/30 11:36:13;;;;;;;;;;;;;;;28.11;26.20;101886.53;5071307;28;19935;-72
2021/05/30 11:38:41;;;;;;;;;;;;;;;27.55;25.99;101886.63;5071489;28;19935;-70
2021/05/30 11:41:12;;;;;;;;;;;;;;;27.80;26.27;101887.97;5071581;28;19929;-71
2021/05/30 11:43:38;;;;;;;;;;;;;;;27.97;26.72;101894.00;5088255;28;20249;-73
2021/05/30 11:46:11;;;;;;;;;;;;;;;27.95;27.33;101893.34;5073322;28;20327;-72
2021/05/30 11:48:37;;;;;;;;;;;;;;;28.39;27.59;101891.88;5090841;28;19932;-72
2021/05/30 11:51:03;;;;;;;;;;;;;;;28.58;25.93;101886.50;5091846;28;20401;-71
2021/05/30 11:53:30;;;;;;;;;;;;;;;27.85;26.59;101874.25;5091195;28;19978;-73
2021/05/30 11:55:56;;;;;;;;;;;;;;;27.79;27.52;101886.25;5091405;28;19930;-71
2021/05/30 11:58:23;;;;;;;;;;;;;;;28.44;26.23;101880.94;5071929;28;19924;-71
2021/05/30 12:00:53;;;;;;;;;;;;;;;28.85;27.93;101879.81;5053233;28;19935;-72
2021/05/30 12:03:19;;;;;;;;;;;;;;;27.77;27.96;101872.50;5052687;28;19974;-71
2021/05/30 12:05:45;;;;;;;;;;;;;;;27.12;29.11;101875.69;5070663;28;19925;-71
2021/05/30 12:08:12;;;;;;;;;;;;;;;26.51;29.06;101887.50;5071022;28;19924;-72
2021/05/30 12:10:47;;;;;;;;;;;;;;;26.23;30.01;101886.47;5052929;28;19924;-71
2021/05/30 12:13:23;;;;;;;;;;;;;;;27.25;28.76;101883.25;5071109;28;19966;-72
2021/05/30 12:15:50;;;;;;;;;;;;;;;27.87;26.93;101878.53;5052786;28;19960;-70
2021/05/30 12:18:16;;;;;;;;;;;;;;;28.56;28.60;101881.13;5070909;28;19924;-73
2021/05/30 12:20:43;;;;;;;;;;;;;;;28.73;25.70;101876.00;5070810;28;19947;-69
2021/05/30 12:23:10;;;;;;;;;;;;;;;28.97;24.92;101867.94;5070792;28;19928;-70
2021/05/30 12:25:36;;;;;;;;;;;;;;;28.92;25.30;101881.75;5070770;28;19972;-71
2021/05/30 12:28:03;;;;;;;;;;;;;;;29.00;25.66;101882.34;5070289;28;19999;-71
2021/05/30 12:30:29;;;;;;;;;;;;;;;29.36;26.58;101872.53;5070625;28;19924;-72
2021/05/30 12:33:00;;;;;;;;;;;;;;;28.76;24.06;101878.34;5070900;28;19925;-70
2021/05/30 12:35:42;;;;;;;;;;;;;;;29.11;25.99;101869.63;5070800;28;20379;-72